Time;durP1;ratioP1;P1;durP2;ratioP2;P2;SDS_P1;SDS_P2;PMS_P1;PMS_P2;Temp;Humidity;BMP_temperature;BMP_pressure;BME280_temperature;BME280_humidity;BME280_pressure;Samples;Min_cycle;Max_cycle;Signal;HPM_P1;HPM_P2
2022/11/04 00:01:23;;;;;;;1.27;1.10;;;12.70;99.90;;;;;;4985003;28;20505;-81
2022/11/04 00:03:50;;;;;;;1.00;0.77;;;12.70;99.90;;;;;;4999820;28;20470;-80
2022/11/04 00:06:17;;;;;;;0.63;0.60;;;12.70;99.90;;;;;;4983556;28;20452;-82
2022/11/04 00:08:53;;;;;;;0.90;0.90;;;12.70;99.90;;;;;;4981939;28;20495;-80
2022/11/04 00:14:08;;;;;;;1.10;1.00;;;12.60;99.90;;;;;;5005284;28;20450;-83
2022/11/04 00:19:20;;;;;;;2.77;1.00;;;12.60;99.90;;;;;;4983576;28;20502;-81
2022/11/04 00:30:06;;;;;;;0.70;0.70;;;12.60;99.90;;;;;;4985339;28;20466;-82
2022/11/04 00:35:20;;;;;;;0.53;0.53;;;12.70;99.90;;;;;;4984527;28;20553;-80
2022/11/04 00:37:47;;;;;;;2.07;1.17;;;13.10;99.90;;;;;;4985167;28;20457;-81
2022/11/04 00:40:14;;;;;;;1.20;1.10;;;12.90;99.90;;;;;;4982350;28;20488;-81
2022/11/04 00:42:45;;;;;;;1.60;1.20;;;12.80;99.90;;;;;;4985663;28;21173;-81
2022/11/04 00:45:12;;;;;;;1.03;0.97;;;12.70;99.90;;;;;;4980998;28;21196;-82
2022/11/04 00:47:38;;;;;;;1.07;0.90;;;12.70;99.90;;;;;;4984347;28;20461;-82
2022/11/04 00:50:05;;;;;;;1.00;0.67;;;12.70;99.90;;;;;;4984071;28;20887;-80
2022/11/04 00:52:32;;;;;;;1.47;1.10;;;12.90;99.90;;;;;;4985416;28;20490;-81
2022/11/04 00:55:00;;;;;;;0.80;0.70;;;13.10;99.90;;;;;;4983213;28;20531;-82
2022/11/04 00:57:27;;;;;;;1.63;0.90;;;12.80;99.90;;;;;;4985262;28;20461;-81
2022/11/04 00:59:54;;;;;;;0.87;0.87;;;13.10;99.90;;;;;;4984714;28;20497;-83
2022/11/04 01:02:20;;;;;;;0.70;0.70;;;13.20;99.90;;;;;;4969224;28;20484;-82
2022/11/04 01:04:48;;;;;;;0.90;0.90;;;13.10;99.90;;;;;;4968380;28;20468;-82
2022/11/04 01:07:15;;;;;;;1.00;1.00;;;13.20;99.90;;;;;;4968444;28;20466;-81
2022/11/04 01:09:41;;;;;;;1.00;0.90;;;13.10;99.90;;;;;;4983178;28;20581;-82
2022/11/04 01:12:10;;;;;;;1.30;1.10;;;13.20;99.90;;;;;;4988076;28;20557;-81
2022/11/04 01:14:37;;;;;;;1.57;1.07;;;13.20;99.90;;;;;;4968895;28;20502;-82
2022/11/04 01:17:04;;;;;;;1.53;1.43;;;12.90;99.90;;;;;;4968401;28;20474;-82
2022/11/04 01:19:31;;;;;;;1.00;0.80;;;12.90;99.90;;;;;;4986484;28;20549;-82
2022/11/04 01:21:58;;;;;;;1.10;1.07;;;12.90;99.90;;;;;;4965185;28;20583;-82
2022/11/04 01:24:27;;;;;;;1.43;1.33;;;12.80;99.90;;;;;;4983651;28;20469;-83
2022/11/04 01:26:54;;;;;;;1.50;1.40;;;12.70;99.90;;;;;;4991972;28;20480;-82
2022/11/04 01:29:21;;;;;;;1.50;1.40;;;12.70;99.90;;;;;;4968064;28;20458;-85
2022/11/04 01:31:49;;;;;;;2.03;1.20;;;12.60;99.90;;;;;;4985787;28;20493;-86
2022/11/04 01:34:16;;;;;;;2.00;1.20;;;12.70;99.90;;;;;;4988254;28;20459;-85
2022/11/04 01:36:44;;;;;;;1.00;1.00;;;12.60;99.90;;;;;;4988335;28;20496;-84
2022/11/04 01:39:12;;;;;;;1.30;0.90;;;12.80;99.90;;;;;;4966529;28;20546;-85
2022/11/04 01:41:39;;;;;;;0.83;0.83;;;12.70;99.90;;;;;;4979258;28;20594;-82
2022/11/04 01:44:45;;;;;;;0.93;0.90;;;12.60;99.90;;;;;;4984110;28;20486;-83
2022/11/04 01:47:18;;;;;;;3.73;1.20;;;12.80;99.90;;;;;;4991141;28;20468;-84
2022/11/04 01:49:51;;;;;;;1.60;1.07;;;13.00;99.90;;;;;;4987865;28;20469;-83
2022/11/04 01:52:27;;;;;;;4.23;1.33;;;13.00;99.90;;;;;;4986864;28;20505;-86
2022/11/04 01:54:58;;;;;;;1.73;1.00;;;13.00;99.90;;;;;;4984988;28;20502;-85
2022/11/04 01:57:33;;;;;;;6.60;1.43;;;12.90;99.90;;;;;;4970473;28;20466;-86
2022/11/04 02:00:04;;;;;;;1.80;1.10;;;12.70;99.90;;;;;;4993240;28;20440;-84
2022/11/04 02:02:31;;;;;;;1.17;1.07;;;12.60;99.90;;;;;;4991729;28;20489;-84
2022/11/04 02:04:58;;;;;;;1.70;1.30;;;12.50;99.90;;;;;;4991441;28;20524;-82
2022/11/04 02:07:27;;;;;;;1.80;1.20;;;12.40;99.90;;;;;;4989399;28;20830;-85
2022/11/04 02:09:57;;;;;;;2.77;1.10;;;12.40;99.90;;;;;;4987625;28;20486;-83
2022/11/04 02:15:39;;;;;;;1.37;0.90;;;12.30;99.90;;;;;;4988931;28;20468;-83
2022/11/04 02:18:20;;;;;;;1.70;1.03;;;12.20;99.90;;;;;;4958083;28;20459;-85
2022/11/04 02:21:23;;;;;;;2.37;1.03;;;12.40;99.90;;;;;;4986028;28;20499;-84
2022/11/04 02:23:50;;;;;;;2.80;0.80;;;12.60;99.90;;;;;;4986803;28;20462;-83
2022/11/04 02:27:02;;;;;;;0.83;0.70;;;12.80;99.90;;;;;;4989042;28;20461;-84
2022/11/04 02:29:51;;;;;;;1.00;0.87;;;12.80;99.90;;;;;;4989762;28;20454;-82
2022/11/04 02:32:21;;;;;;;1.07;0.80;;;12.60;99.90;;;;;;4985238;28;20488;-83
2022/11/04 02:35:14;;;;;;;0.83;0.83;;;12.60;99.90;;;;;;4996020;28;20457;-84
2022/11/04 02:37:53;;;;;;;1.80;1.03;;;12.50;99.90;;;;;;5003781;28;20454;-82
2022/11/04 02:40:50;;;;;;;1.37;0.97;;;12.40;99.90;;;;;;5000158;28;20492;-83
2022/11/04 02:43:32;;;;;;;1.27;0.77;;;12.40;99.90;;;;;;5007995;28;20533;-81
2022/11/04 02:46:35;;;;;;;2.33;0.93;;;12.20;99.90;;;;;;5003290;28;20447;-81
2022/11/04 02:49:17;;;;;;;1.33;1.00;;;12.20;99.90;;;;;;4979642;28;20458;-82
2022/11/04 02:51:53;;;;;;;1.73;0.63;;;12.10;99.90;;;;;;4987081;28;20819;-83
2022/11/04 02:54:47;;;;;;;1.00;1.00;;;12.10;99.90;;;;;;4989528;28;20442;-85
2022/11/04 02:57:25;;;;;;;1.63;1.00;;;12.10;99.90;;;;;;4987276;28;20465;-86
2022/11/04 03:00:02;;;;;;;2.27;1.03;;;12.00;99.90;;;;;;4971123;28;20541;-84
2022/11/04 03:02:44;;;;;;;3.37;0.80;;;12.00;99.90;;;;;;4990062;28;20555;-86
2022/11/04 03:05:21;;;;;;;1.53;0.90;;;12.00;99.90;;;;;;4987135;28;20456;-86
2022/11/04 03:07:53;;;;;;;1.77;1.00;;;12.00;99.90;;;;;;4985522;28;20459;-85
2022/11/04 03:10:32;;;;;;;1.77;0.97;;;12.00;99.90;;;;;;4985895;28;20473;-85
2022/11/04 03:13:10;;;;;;;1.70;0.90;;;12.00;99.90;;;;;;4986026;28;21216;-83
2022/11/04 03:15:39;;;;;;;1.47;1.00;;;12.00;99.90;;;;;;4985840;28;20796;-84
2022/11/04 03:18:28;;;;;;;2.27;1.60;;;11.90;99.90;;;;;;4983811;28;20463;-86
2022/11/04 03:21:00;;;;;;;1.53;0.73;;;12.10;99.90;;;;;;4985611;28;20481;-83
2022/11/04 03:23:28;;;;;;;1.23;1.10;;;12.20;99.90;;;;;;4984841;28;20466;-84
2022/11/04 03:26:04;;;;;;;1.43;0.83;;;12.10;99.90;;;;;;4983761;28;21348;-86
2022/11/04 03:28:43;;;;;;;2.07;0.80;;;12.10;99.90;;;;;;4987926;28;20486;-84
2022/11/04 03:31:37;;;;;;;3.03;0.80;;;12.00;99.90;;;;;;5002352;28;20485;-84
2022/11/04 03:34:04;;;;;;;1.67;1.50;;;11.90;99.90;;;;;;4986467;28;20511;-85
2022/11/04 03:36:31;;;;;;;5.77;1.50;;;11.90;99.90;;;;;;4983299;28;20968;-85
2022/11/04 03:38:59;;;;;;;3.80;1.50;;;12.00;99.90;;;;;;4986031;28;20458;-83
2022/11/04 03:41:34;;;;;;;2.53;1.33;;;11.90;99.90;;;;;;4986154;28;20478;-83
2022/11/04 03:44:01;;;;;;;6.83;1.47;;;11.90;99.90;;;;;;4984361;28;20478;-86
2022/11/04 03:46:28;;;;;;;1.57;0.97;;;11.80;99.90;;;;;;4969966;28;20466;-85
2022/11/04 03:48:57;;;;;;;1.77;1.23;;;11.80;99.90;;;;;;4995954;28;20469;-82
2022/11/04 03:51:24;;;;;;;1.37;0.83;;;11.90;99.90;;;;;;4991949;28;20509;-83
2022/11/04 03:53:51;;;;;;;3.50;1.20;;;11.80;99.90;;;;;;4991368;28;20486;-85
2022/11/04 03:56:39;;;;;;;2.57;1.10;;;11.70;99.90;;;;;;4989761;28;20905;-84
2022/11/04 03:59:33;;;;;;;2.50;1.07;;;11.70;99.90;;;;;;4993223;28;20505;-86
2022/11/04 04:02:19;;;;;;;3.70;1.80;;;11.60;99.90;;;;;;4975328;28;21074;-84
2022/11/04 04:04:57;;;;;;;1.47;1.17;;;11.70;99.90;;;;;;4973357;28;20466;-85
2022/11/04 04:07:38;;;;;;;1.57;1.10;;;11.60;99.90;;;;;;4988477;28;20450;-83
2022/11/04 04:10:41;;;;;;;2.23;2.03;;;11.60;99.90;;;;;;4989358;28;20453;-84
2022/11/04 04:13:17;;;;;;;10.10;1.43;;;11.50;99.90;;;;;;4969479;28;20479;-84
2022/11/04 04:16:17;;;;;;;4.20;1.43;;;11.50;99.90;;;;;;4970213;28;20450;-85
2022/11/04 04:18:53;;;;;;;2.77;1.20;;;11.50;99.90;;;;;;4968826;28;21426;-84
2022/11/04 04:21:28;;;;;;;3.17;1.20;;;11.50;99.90;;;;;;4984132;28;20480;-85
2022/11/04 04:29:37;;;;;;;1.30;1.20;;;11.50;99.90;;;;;;4988304;28;20449;-84
2022/11/04 04:32:08;;;;;;;2.50;1.60;;;11.40;99.90;;;;;;4986448;28;20841;-84
2022/11/04 04:34:38;;;;;;;4.50;1.70;;;11.40;99.90;;;;;;4986568;28;20481;-83
2022/11/04 04:37:19;;;;;;;3.50;1.43;;;11.40;99.90;;;;;;4970470;28;20956;-85
2022/11/04 04:45:42;;;;;;;2.90;1.97;;;11.30;99.90;;;;;;4998941;28;20445;-84
2022/11/04 04:48:12;;;;;;;2.87;1.50;;;11.40;99.90;;;;;;4991854;28;20450;-85
2022/11/04 04:50:44;;;;;;;2.83;1.50;;;11.30;99.90;;;;;;4989987;28;20477;-85
2022/11/04 04:53:13;;;;;;;3.20;1.40;;;11.20;99.90;;;;;;4994015;28;20486;-81
2022/11/04 04:55:39;;;;;;;1.30;1.20;;;11.20;99.90;;;;;;4992324;28;20814;-85
2022/11/04 04:58:08;;;;;;;3.30;1.63;;;11.40;99.90;;;;;;4996132;28;20451;-83
2022/11/04 05:00:35;;;;;;;1.93;1.70;;;11.40;99.90;;;;;;4979047;28;20503;-84
2022/11/04 05:03:02;;;;;;;2.33;1.20;;;11.30;99.90;;;;;;4982137;28;20874;-83
2022/11/04 05:05:28;;;;;;;2.87;1.70;;;11.20;99.90;;;;;;4993949;28;20849;-85
2022/11/04 05:08:04;;;;;;;1.20;1.20;;;11.20;99.90;;;;;;4993077;28;20460;-84
2022/11/04 05:10:30;;;;;;;2.43;1.80;;;11.20;99.90;;;;;;4974812;28;20482;-86
2022/11/04 05:15:44;;;;;;;2.97;1.50;;;11.20;99.90;;;;;;5008207;28;20450;-82
2022/11/04 05:18:11;;;;;;;3.10;1.57;;;11.20;99.90;;;;;;4990734;28;20456;-82
2022/11/04 05:20:39;;;;;;;1.93;1.70;;;11.20;99.90;;;;;;5003066;28;20467;-81
2022/11/04 05:23:07;;;;;;;2.30;1.60;;;11.20;99.90;;;;;;4978194;28;20549;-84
2022/11/04 05:25:34;;;;;;;11.70;3.73;;;11.20;99.90;;;;;;4990317;28;20458;-84
2022/11/04 05:28:01;;;;;;;3.50;1.50;;;11.10;99.90;;;;;;4987866;28;20452;-84
2022/11/04 05:30:28;;;;;;;2.80;1.50;;;11.20;99.90;;;;;;4971056;28;20467;-85
2022/11/04 05:32:55;;;;;;;3.73;1.47;;;11.10;99.90;;;;;;4986885;28;20490;-84
2022/11/04 05:35:24;;;;;;;4.63;1.77;;;11.20;99.90;;;;;;4989496;28;20498;-84
2022/11/04 05:37:51;;;;;;;7.53;1.93;;;11.10;99.90;;;;;;4996564;28;20452;-81
2022/11/04 05:40:18;;;;;;;2.77;1.73;;;11.10;99.90;;;;;;4988517;28;20463;-84
2022/11/04 05:42:45;;;;;;;3.63;1.80;;;11.20;99.90;;;;;;5003506;28;20476;-81
2022/11/04 05:45:17;;;;;;;1.93;1.50;;;11.10;99.90;;;;;;5002318;28;20433;-81
2022/11/04 05:47:44;;;;;;;5.50;2.33;;;11.00;99.90;;;;;;5000332;28;20470;-85
2022/11/04 05:50:10;;;;;;;4.33;1.90;;;11.00;99.90;;;;;;4997374;28;20497;-84
2022/11/04 05:52:38;;;;;;;5.90;2.03;;;10.90;99.90;;;;;;4997989;28;20538;-84
2022/11/04 05:55:06;;;;;;;8.27;2.03;;;10.80;99.90;;;;;;4992581;28;20438;-82
2022/11/04 05:57:34;;;;;;;4.13;2.20;;;10.70;99.90;;;;;;4991822;28;20491;-83
2022/11/04 06:00:01;;;;;;;5.63;2.97;;;10.80;99.90;;;;;;4995100;28;20458;-83
2022/11/04 06:02:29;;;;;;;4.13;2.00;;;10.90;99.90;;;;;;4989019;28;20540;-85
2022/11/04 06:04:56;;;;;;;5.47;1.83;;;10.90;99.90;;;;;;4989552;28;20481;-85
2022/11/04 06:07:23;;;;;;;5.30;1.93;;;10.90;99.90;;;;;;5007272;28;21105;-82
2022/11/04 06:09:52;;;;;;;6.93;2.50;;;10.90;99.90;;;;;;4987916;28;20577;-84
2022/11/04 06:12:19;;;;;;;7.13;2.70;;;10.90;99.90;;;;;;4992527;28;20454;-82
2022/11/04 06:14:46;;;;;;;8.33;3.17;;;10.90;99.90;;;;;;4989929;28;20536;-82
2022/11/04 06:17:15;;;;;;;9.00;2.90;;;10.90;99.90;;;;;;4990675;28;20453;-85
2022/11/04 06:19:42;;;;;;;11.30;3.50;;;10.80;99.90;;;;;;4990958;28;20459;-84
2022/11/04 06:22:14;;;;;;;15.03;5.60;;;10.70;99.90;;;;;;4986826;28;20502;-83
2022/11/04 06:24:41;;;;;;;11.27;4.00;;;10.80;99.90;;;;;;4985132;28;20458;-85
2022/11/04 06:27:12;;;;;;;12.63;3.97;;;10.80;99.90;;;;;;5002185;28;20493;-83
2022/11/04 06:29:42;;;;;;;11.37;4.03;;;10.80;99.90;;;;;;4983629;28;20471;-82
2022/11/04 06:32:15;;;;;;;10.47;3.80;;;10.80;99.90;;;;;;5000738;28;20478;-84
2022/11/04 06:34:42;;;;;;;11.90;3.20;;;10.80;99.90;;;;;;4987368;28;20490;-85
2022/11/04 06:37:15;;;;;;;14.67;4.47;;;10.90;99.90;;;;;;4986188;28;20450;-84
2022/11/04 06:39:45;;;;;;;11.20;3.40;;;10.80;99.90;;;;;;4992997;28;20466;-85
2022/11/04 06:42:13;;;;;;;15.03;4.60;;;10.80;99.90;;;;;;4987023;28;20485;-84
2022/11/04 06:44:48;;;;;;;11.60;4.33;;;10.80;99.90;;;;;;4986604;28;20461;-86
2022/11/04 06:47:18;;;;;;;17.53;4.67;;;10.80;99.90;;;;;;4983963;28;20458;-84
2022/11/04 06:49:52;;;;;;;5.50;2.37;;;10.70;99.90;;;;;;4967833;28;20471;-86
2022/11/04 06:52:21;;;;;;;11.93;4.27;;;10.70;99.90;;;;;;4990553;28;20489;-82
2022/11/04 06:55:07;;;;;;;10.17;2.97;;;10.80;99.90;;;;;;4969251;28;20484;-83
2022/11/04 06:57:43;;;;;;;8.93;3.50;;;10.80;99.90;;;;;;4989944;28;20582;-83
2022/11/04 07:00:10;;;;;;;13.40;4.47;;;10.90;99.90;;;;;;5002324;28;20466;-85
2022/11/04 07:02:37;;;;;;;13.13;4.80;;;10.80;99.90;;;;;;4977111;28;20511;-83
2022/11/04 07:05:05;;;;;;;8.53;2.93;;;10.80;99.90;;;;;;4974643;28;21831;-84
2022/11/04 07:07:33;;;;;;;3.53;2.20;;;10.70;99.90;;;;;;4981774;28;20474;-82
2022/11/04 07:10:00;;;;;;;3.67;1.60;;;10.60;99.90;;;;;;5001729;28;20526;-83
2022/11/04 07:12:30;;;;;;;2.50;1.47;;;10.80;99.90;;;;;;5000165;28;20457;-82
2022/11/04 07:14:57;;;;;;;4.87;2.40;;;10.80;99.90;;;;;;4982743;28;20483;-83
2022/11/04 07:17:27;;;;;;;2.30;1.30;;;10.80;99.90;;;;;;5001456;28;20478;-83
2022/11/04 07:19:56;;;;;;;2.30;1.50;;;10.90;99.90;;;;;;4991415;28;20461;-82
2022/11/04 07:22:33;;;;;;;2.33;1.47;;;11.00;99.90;;;;;;5004137;28;20457;-83
2022/11/04 07:25:00;;;;;;;4.70;2.43;;;10.90;99.90;;;;;;4985894;28;20528;-81
2022/11/04 07:27:30;;;;;;;11.33;3.33;;;10.90;99.90;;;;;;4987825;28;20453;-83
2022/11/04 07:29:56;;;;;;;4.07;2.17;;;10.90;99.90;;;;;;5004079;28;20486;-81
2022/11/04 07:32:26;;;;;;;5.20;2.03;;;11.10;99.90;;;;;;5007358;28;20510;-84
2022/11/04 07:34:55;;;;;;;6.30;1.77;;;11.10;99.90;;;;;;4988460;28;20491;-85
2022/11/04 07:37:21;;;;;;;3.77;2.10;;;11.10;99.90;;;;;;4996643;28;20459;-84
2022/11/04 07:39:51;;;;;;;3.10;1.40;;;11.00;99.90;;;;;;4993745;28;20466;-82
2022/11/04 07:42:21;;;;;;;2.33;1.57;;;11.00;99.90;;;;;;4996519;28;21133;-84
2022/11/04 07:44:51;;;;;;;3.83;2.20;;;11.00;99.90;;;;;;4995082;28;20450;-84
2022/11/04 07:47:18;;;;;;;4.00;2.07;;;11.00;99.90;;;;;;5005467;28;20521;-81
2022/11/04 07:49:45;;;;;;;4.60;1.60;;;11.00;99.90;;;;;;4987046;28;20451;-84
2022/11/04 07:52:14;;;;;;;7.60;3.00;;;11.00;99.90;;;;;;5003129;28;20444;-84
2022/11/04 07:55:06;;;;;;;4.60;1.90;;;11.20;99.90;;;;;;4991369;28;20498;-83
2022/11/04 07:57:35;;;;;;;13.07;2.10;;;11.10;99.90;;;;;;4973349;28;20497;-85
2022/11/04 08:00:10;;;;;;;7.10;2.20;;;11.00;99.90;;;;;;4979369;28;20561;-82
2022/11/04 08:02:48;;;;;;;3.93;1.83;;;10.80;99.90;;;;;;4994628;28;20454;-82
2022/11/04 08:05:18;;;;;;;2.53;1.90;;;11.20;99.90;;;;;;4993557;28;20702;-85
2022/11/04 08:07:56;;;;;;;4.10;2.00;;;11.30;99.90;;;;;;4981672;28;20458;-84
2022/11/04 08:10:23;;;;;;;2.97;2.10;;;11.20;99.90;;;;;;4976451;28;20486;-83
2022/11/04 08:12:54;;;;;;;2.27;1.60;;;11.20;99.90;;;;;;4996031;28;20470;-86
2022/11/04 08:15:36;;;;;;;3.90;1.80;;;11.20;99.90;;;;;;4991672;28;20490;-85
2022/11/04 08:18:05;;;;;;;4.50;1.77;;;11.30;99.90;;;;;;4992379;28;20508;-84
2022/11/04 08:20:37;;;;;;;6.10;3.13;;;11.40;99.90;;;;;;4972831;28;20482;-85
2022/11/04 08:23:18;;;;;;;5.70;1.93;;;11.40;99.90;;;;;;4974007;28;20451;-84
2022/11/04 08:25:49;;;;;;;2.77;1.70;;;11.40;99.90;;;;;;4979462;28;20499;-84
2022/11/04 08:28:16;;;;;;;4.13;2.47;;;11.60;99.90;;;;;;4993320;28;20463;-84
2022/11/04 08:31:02;;;;;;;5.50;2.20;;;11.60;99.90;;;;;;4997623;28;20505;-84
2022/11/04 08:33:34;;;;;;;5.83;2.40;;;11.60;99.90;;;;;;4975016;28;20968;-84
2022/11/04 08:36:11;;;;;;;11.70;3.40;;;11.50;99.90;;;;;;4975193;28;20458;-84
2022/11/04 08:38:42;;;;;;;7.53;2.67;;;11.60;99.90;;;;;;4976732;28;20469;-85
2022/11/04 08:41:14;;;;;;;11.00;3.23;;;11.70;99.90;;;;;;4983951;28;20487;-84
2022/11/04 08:43:44;;;;;;;6.47;2.70;;;11.70;99.90;;;;;;5000829;28;20487;-82
2022/11/04 08:46:21;;;;;;;10.73;3.53;;;11.70;99.90;;;;;;4990584;28;20470;-84
2022/11/04 08:48:51;;;;;;;6.53;2.80;;;11.70;99.90;;;;;;4994081;28;20461;-85
2022/11/04 08:51:33;;;;;;;10.23;3.27;;;11.90;99.90;;;;;;4994617;28;20461;-84
2022/11/04 08:54:05;;;;;;;5.87;3.87;;;11.90;99.90;;;;;;4993585;28;20501;-84
2022/11/04 08:56:39;;;;;;;3.93;2.60;;;12.00;99.90;;;;;;4992704;28;20792;-84
2022/11/04 08:59:20;;;;;;;7.23;3.00;;;12.10;99.90;;;;;;4982286;28;20500;-83
2022/11/04 09:01:49;;;;;;;4.70;2.80;;;12.20;99.90;;;;;;4997058;28;20478;-82
2022/11/04 09:04:31;;;;;;;6.37;2.50;;;12.50;99.90;;;;;;5001571;28;20466;-86
2022/11/04 09:07:04;;;;;;;5.77;2.60;;;12.70;99.90;;;;;;4998327;28;20465;-85
2022/11/04 09:09:34;;;;;;;2.33;2.13;;;12.80;99.90;;;;;;4996392;28;20465;-83
2022/11/04 09:12:02;;;;;;;2.67;2.03;;;12.70;99.90;;;;;;4995779;28;20504;-85
2022/11/04 09:14:38;;;;;;;4.50;2.03;;;12.60;99.90;;;;;;4994913;28;20481;-85
2022/11/04 09:17:05;;;;;;;2.70;2.07;;;12.60;99.90;;;;;;4995365;28;20463;-81
2022/11/04 09:19:42;;;;;;;6.77;2.73;;;12.50;99.90;;;;;;4995577;28;20482;-84
2022/11/04 09:22:14;;;;;;;2.50;2.30;;;12.50;99.90;;;;;;4990889;28;20495;-85
2022/11/04 09:24:49;;;;;;;2.70;2.47;;;12.80;99.90;;;;;;4990148;28;20462;-84
2022/11/04 09:27:20;;;;;;;3.70;2.10;;;12.90;99.90;;;;;;5008441;28;20702;-83
2022/11/04 09:30:33;;;;;;;5.07;2.10;;;13.20;99.90;;;;;;5017803;28;20485;-83
2022/11/04 09:33:53;;;;;;;6.40;2.20;;;14.30;99.90;;;;;;4943815;29;20716;-85
2022/11/04 09:36:46;;;;;;;6.20;1.90;;;15.40;98.90;;;;;;4925885;29;20470;-85
2022/11/04 09:39:31;;;;;;;3.60;2.17;;;15.60;96.90;;;;;;4924775;29;20456;-85
2022/11/04 09:42:59;;;;;;;3.97;2.20;;;15.00;97.00;;;;;;4929362;29;20495;-85
2022/11/04 09:45:58;;;;;;;;;;;;;;;;;;;;;
2022/11/04 09:49:25;;;;;;;3.37;1.87;;;14.30;99.10;;;;;;4962570;28;20457;-86
2022/11/04 09:52:36;;;;;;;5.00;2.90;;;13.90;99.90;;;;;;4986728;28;20581;-87
2022/11/04 09:55:50;;;;;;;5.20;1.90;;;13.70;99.90;;;;;;4997479;28;20470;-84
2022/11/04 09:58:57;;;;;;;3.73;1.90;;;13.70;99.90;;;;;;4988929;28;20459;-84
2022/11/04 10:06:25;;;;;;;5.80;2.43;;;13.50;99.90;;;;;;4985741;28;20454;-85
2022/11/04 10:09:41;;;;;;;3.10;1.97;;;13.50;99.90;;;;;;4991943;28;20499;-85
2022/11/04 10:13:01;;;;;;;;;;;;;;;;;;;;;
2022/11/04 10:16:25;;;;;;;3.30;1.67;;;13.60;99.90;;;;;;4900702;29;20545;-85
2022/11/04 10:19:34;;;;;;;2.97;1.50;;;13.70;99.90;;;;;;4881657;29;20902;-85
2022/11/04 10:23:38;;;;;;;2.50;1.90;;;13.90;99.90;;;;;;4841499;29;20722;-84
2022/11/04 10:30:12;;;;;;;2.80;2.10;;;13.80;99.90;;;;;;4841022;29;20626;-84
2022/11/04 10:33:36;;;;;;;4.40;3.03;;;14.10;99.90;;;;;;4849676;29;20473;-84
2022/11/04 10:39:45;;;;;;;3.53;2.10;;;14.10;99.90;;;;;;4856686;29;20504;-81
2022/11/04 10:42:21;;;;;;;2.40;2.00;;;14.40;99.90;;;;;;4852148;29;20498;-82
2022/11/04 10:44:52;;;;;;;4.30;2.10;;;14.20;99.90;;;;;;4850113;29;20716;-84
2022/11/04 10:47:28;;;;;;;3.50;2.27;;;14.00;99.90;;;;;;4853352;29;20816;-83
2022/11/04 10:50:26;;;;;;;6.17;2.30;;;14.00;99.90;;;;;;4841695;29;20492;-84
2022/11/04 10:53:17;;;;;;;4.43;2.33;;;14.20;99.90;;;;;;4842476;29;21023;-87
2022/11/04 10:55:43;;;;;;;5.00;2.37;;;14.10;99.90;;;;;;4880966;29;20491;-84
2022/11/04 10:58:21;;;;;;;5.73;3.20;;;14.20;99.90;;;;;;4928452;29;20835;-86
2022/11/04 11:00:51;;;;;;;6.87;3.10;;;14.20;99.90;;;;;;4929069;29;20488;-87
2022/11/04 11:03:29;;;;;;;4.00;2.20;;;13.90;99.90;;;;;;4935200;29;20525;-85
2022/11/04 11:06:27;;;;;;;6.17;2.70;;;14.00;99.90;;;;;;4932543;29;20523;-84
2022/11/04 11:09:28;;;;;;;2.60;2.40;;;14.00;99.90;;;;;;4933608;29;20883;-86
2022/11/04 11:12:23;;;;;;;3.83;2.33;;;13.90;99.90;;;;;;4932115;29;20536;-86
2022/11/04 11:15:41;;;;;;;4.80;2.10;;;13.60;99.90;;;;;;4935980;29;20481;-82
2022/11/04 11:18:20;;;;;;;4.10;2.23;;;13.60;99.90;;;;;;4933844;29;20555;-82
2022/11/04 11:21:03;;;;;;;5.67;2.87;;;14.00;99.90;;;;;;4946302;28;20487;-85
2022/11/04 11:23:50;;;;;;;6.17;2.63;;;14.20;99.90;;;;;;4944780;28;20588;-87
2022/11/04 11:26:28;;;;;;;5.30;2.50;;;14.20;99.90;;;;;;4927047;29;20900;-84
2022/11/04 11:29:08;;;;;;;5.37;2.27;;;14.60;99.90;;;;;;4928303;29;20970;-86
2022/11/04 11:31:38;;;;;;;6.10;2.60;;;14.50;99.90;;;;;;4930306;29;21046;-86
2022/11/04 11:34:21;;;;;;;4.67;2.30;;;14.50;99.90;;;;;;4932121;29;20504;-83
2022/11/04 11:36:49;;;;;;;3.23;2.40;;;14.90;99.90;;;;;;4929081;29;20507;-83
2022/11/04 11:39:20;;;;;;;3.87;2.20;;;14.90;99.30;;;;;;4928741;29;20496;-84
2022/11/04 11:42:03;;;;;;;2.73;2.00;;;14.60;99.50;;;;;;4928377;29;20480;-84
2022/11/04 11:44:33;;;;;;;3.50;2.00;;;14.50;99.60;;;;;;4929704;29;20477;-85
2022/11/04 11:47:20;;;;;;;2.90;1.53;;;14.40;99.60;;;;;;4926320;29;20820;-84
2022/11/04 11:50:14;;;;;;;2.30;1.63;;;14.80;99.30;;;;;;4928196;29;20470;-85
2022/11/04 11:52:47;;;;;;;6.10;2.07;;;15.50;97.40;;;;;;4928373;29;20473;-84
2022/11/04 11:55:22;;;;;;;9.83;2.87;;;15.40;96.90;;;;;;4927312;29;20484;-82
2022/11/04 11:58:13;;;;;;;7.50;2.63;;;15.60;97.00;;;;;;4930082;29;20556;-84
2022/11/04 12:01:14;;;;;;;3.60;2.40;;;15.70;96.40;;;;;;4930058;29;20483;-86
2022/11/04 12:03:48;;;;;;;2.20;1.57;;;15.50;96.90;;;;;;4931762;29;20488;-84
2022/11/04 12:07:07;;;;;;;6.57;2.40;;;15.40;97.30;;;;;;4933348;29;20819;-83
2022/11/04 12:10:10;;;;;;;4.20;2.30;;;15.00;97.30;;;;;;4935617;29;20461;-83
2022/11/04 12:12:53;;;;;;;3.03;2.20;;;14.90;97.70;;;;;;4934310;29;20975;-82
2022/11/04 12:15:44;;;;;;;1.83;1.30;;;14.90;98.00;;;;;;4931592;29;20492;-85
2022/11/04 12:18:52;;;;;;;3.90;1.77;;;15.40;97.10;;;;;;4930060;29;20867;-84
2022/11/04 12:21:32;;;;;;;5.33;1.50;;;15.30;96.30;;;;;;4915359;29;20496;-85
2022/11/04 12:24:40;;;;;;;3.53;1.90;;;14.90;96.70;;;;;;4913010;29;20467;-84
2022/11/04 12:27:29;;;;;;;3.80;1.90;;;14.80;97.30;;;;;;4931375;29;20536;-85
2022/11/04 12:30:23;;;;;;;3.87;1.80;;;14.60;97.50;;;;;;4936070;29;20471;-85
2022/11/04 12:33:33;;;;;;;4.47;1.60;;;14.60;97.90;;;;;;4919454;29;20572;-85
2022/11/04 12:37:09;;;;;;;3.57;1.97;;;14.50;98.00;;;;;;4920329;29;21007;-85
2022/11/04 12:40:05;;;;;;;4.23;1.80;;;14.60;98.20;;;;;;4893592;29;20497;-86
2022/11/04 12:42:54;;;;;;;5.47;3.20;;;14.40;98.50;;;;;;4881673;29;20469;-85
2022/11/04 12:46:56;;;;;;;5.13;3.07;;;14.30;99.20;;;;;;4895137;29;20497;-86
2022/11/04 12:49:55;;;;;;;;;;;;;;;;;;;;;
2022/11/04 12:53:17;;;;;;;3.83;2.80;;;14.20;99.70;;;;;;4906435;29;20486;-84
2022/11/04 12:56:13;;;;;;;3.10;1.87;;;14.20;99.60;;;;;;4906123;29;20490;-83
2022/11/04 12:59:14;;;;;;;2.73;1.47;;;14.30;99.70;;;;;;4898792;29;20478;-83
2022/11/04 13:14:41;;;;;;;;;;;;;;;;;;;;;
2022/11/04 13:25:11;;;;;;;2.93;1.20;;;14.20;99.90;;;;;;4869288;29;22084;-84
2022/11/04 13:28:04;;;;;;;;;;;;;;;;;;;;;
2022/11/04 13:31:25;;;;;;;5.70;1.37;;;14.30;99.70;;;;;;4873037;29;20528;-84
2022/11/04 13:34:20;;;;;;;3.10;1.30;;;14.70;98.50;;;;;;4896484;29;20483;-86
2022/11/04 13:37:42;;;;;;;2.07;1.03;;;14.50;98.60;;;;;;4926659;29;20453;-83
2022/11/04 13:40:41;;;;;;;1.63;0.90;;;14.40;98.70;;;;;;4897644;29;20515;-85
2022/11/04 13:43:49;;;;;;;3.07;1.50;;;14.40;98.90;;;;;;4869653;29;20565;-82
2022/11/04 13:46:47;;;;;;;1.00;0.80;;;14.30;98.80;;;;;;4914799;29;20457;-84
2022/11/04 13:49:58;;;;;;;;;;;;;;;;;;;;;
2022/11/04 13:53:08;;;;;;;2.53;0.90;;;14.60;98.30;;;;;;4978380;28;20519;-85
2022/11/04 13:55:50;;;;;;;2.40;1.27;;;14.70;97.70;;;;;;4965540;28;20487;-85
2022/11/04 13:58:54;;;;;;;3.03;1.10;;;14.70;97.30;;;;;;4966360;28;20496;-84
2022/11/04 14:05:28;;;;;;;4.20;1.40;;;14.50;97.40;;;;;;4992470;28;20532;-84
2022/11/04 14:08:39;;;;;;;1.83;1.23;;;14.50;97.60;;;;;;4985148;28;20537;-83
2022/11/04 14:11:30;;;;;;;;;;;;;;;;;;;;;
2022/11/04 14:14:41;;;;;;;2.63;1.10;;;14.50;97.70;;;;;;5011201;23;20469;-82
2022/11/04 14:17:57;;;;;;;2.93;1.47;;;14.50;97.90;;;;;;4956602;28;20472;-86
2022/11/04 14:20:49;;;;;;;3.57;1.77;;;14.50;98.30;;;;;;4955068;28;20486;-85
2022/11/04 14:23:43;;;;;;;1.70;1.30;;;14.40;98.70;;;;;;4887757;28;20439;-83
2022/11/04 14:32:13;;;;;;;2.60;1.70;;;14.50;99.50;;;;;;4956243;28;20546;-84
2022/11/04 14:35:08;;;;;;;2.83;1.50;;;14.40;99.40;;;;;;5113437;23;20499;-85
2022/11/04 14:38:14;;;;;;;2.57;1.53;;;14.40;99.60;;;;;;4964538;28;20550;-84
2022/11/04 14:41:13;;;;;;;2.50;1.50;;;14.40;99.80;;;;;;4944465;29;20498;-85
2022/11/04 14:44:21;;;;;;;;;;;;;;;;;;;;;
2022/11/04 14:47:34;;;;;;;10.27;2.53;;;14.50;99.90;;;;;;4876434;29;20533;-84
2022/11/04 14:50:27;;;;;;;3.53;2.37;;;14.90;99.10;;;;;;4948049;28;20460;-85
2022/11/04 14:53:39;;;;;;;3.30;2.30;;;14.60;99.00;;;;;;4948943;28;20453;-86
2022/11/04 14:56:45;;;;;;;3.30;1.97;;;14.40;99.50;;;;;;4960351;28;20563;-85
2022/11/04 14:59:36;;;;;;;5.93;3.20;;;14.40;99.80;;;;;;4944464;28;20479;-84
2022/11/04 15:02:36;;;;;;;6.00;2.90;;;14.20;99.90;;;;;;4946374;29;20499;-85
2022/11/04 15:05:03;;;;;;;2.60;1.83;;;14.10;99.90;;;;;;4963034;28;20476;-86
2022/11/04 15:08:11;;;;;;;3.53;2.30;;;14.00;99.90;;;;;;4948390;28;20454;-85
2022/11/04 15:12:49;;;;;;;5.40;2.10;;;13.90;99.90;;;;;;4931385;29;20575;-87
2022/11/04 15:14:25;;;;;;;5.20;2.03;;;13.80;99.90;;;;;;4943899;28;20479;-85
2022/11/04 15:17:20;;;;;;;4.63;2.67;;;13.70;99.90;;;;;;4945855;28;20501;-83
2022/11/04 15:20:03;;;;;;;4.63;2.47;;;13.70;99.90;;;;;;4945949;28;20480;-84
2022/11/04 15:22:33;;;;;;;6.10;2.30;;;13.70;99.90;;;;;;4947950;29;20969;-86